Accueil
METAR-TAF:

METAR-TAF

Aéroports :

Mönchengladbach, Allemagne

latitude: 51-13-49N, longitude: 006-30-16E, altitude: 38 m

Observation

Le bulletin a été fait il y a 15 minutes, à 11:50 UTC
Vent 5 kt de est/nord-est, variant entre nord/nord-ouest et est/sud-est
Température 21°C
Humidité 60%
Pression 1008 hPa
Visibilité: 8000 m
Nuages épars à une hauteur de 2300 ft
Nuages fragmentés à une hauteur de 6700 ft

METAR: EDLN 271150Z 07005KT 340V110 8000 SCT023 BKN067 21/13 Q1008

Heure: 14:05 (12:05 UTC)

Prévision

Le bulletin a été fait il y a 1 heure et 5 minutes, à 11:00 UTC
Prévision valable du 27 à 12 UTC au 27 à 21 UTC
Vent 6 kt de est
Visibilité 10 km ou plus
Nuages épars à une hauteur de 4500 ft
Temporairement
du 27 à 19 UTC au 27 à 21 UTC
Nuages fragmentés à une hauteur de 3000 ft, Cumulonimbus.
orage, pluie

TAF: EDLN 271100Z 2712/2721 08006KT 9999 SCT045 TEMPO 2719/2721 TSRA BKN030CB

Observations et prévisions météorologiques de plus de 4000 aéroports (messages METAR et TAF).

Les stations disponibles sont représentées par des disques jaunes et rouges sur la carte.

Passer la souris dessus pour voir le nom de la station.

Cliquer dessus pour voir les observations et prévisions météorologiques.

Pour changer de carte: cliquez sur les boutons verts avec une croix noire pour zoomer, sur le bouton vert avec un tiret pour effectuer un zoom arrière, ou sur les flèches vertes pour les cartes adjacentes.


METAR-TAF: